Time;durP1;ratioP1;P1;durP2;ratioP2;P2;SDS_P1;SDS_P2;PMS_P1;PMS_P2;Temp;Humidity;BMP_temperature;BMP_pressure;BME280_temperature;BME280_humidity;BME280_pressure;Samples;Min_cycle;Max_cycle;Signal;HPM_P1;HPM_P2
2021/09/13 00:02:11;;;;;;;9.52;6.95;;;20.80;85.70;;;;;;5061055;28;20036;-61
2021/09/13 00:04:37;;;;;;;8.55;6.75;;;20.80;85.70;;;;;;5073900;28;20022;-61
2021/09/13 00:07:03;;;;;;;7.15;6.53;;;20.80;85.80;;;;;;5059158;28;20507;-61
2021/09/13 00:09:28;;;;;;;7.30;6.65;;;20.80;85.80;;;;;;5068049;28;20020;-61
2021/09/13 00:11:54;;;;;;;7.88;7.07;;;20.80;85.80;;;;;;5042136;28;20516;-61
2021/09/13 00:14:20;;;;;;;7.30;6.47;;;20.80;85.90;;;;;;5054894;28;20353;-61
2021/09/13 00:16:46;;;;;;;7.78;7.13;;;20.80;86.00;;;;;;5076835;28;20430;-61
2021/09/13 00:19:11;;;;;;;8.50;6.68;;;20.70;86.00;;;;;;5060313;28;20050;-61
2021/09/13 00:21:37;;;;;;;8.40;6.45;;;20.70;86.10;;;;;;5083698;28;20286;-61
2021/09/13 00:24:02;;;;;;;7.75;6.57;;;20.70;86.10;;;;;;5084474;28;20111;-61
2021/09/13 00:26:28;;;;;;;6.90;6.30;;;20.70;86.10;;;;;;5079875;28;20120;-61
2021/09/13 00:28:53;;;;;;;13.18;6.60;;;20.70;86.10;;;;;;5085611;28;20052;-62
2021/09/13 00:31:19;;;;;;;11.52;6.70;;;20.70;86.20;;;;;;5084754;28;20250;-61
2021/09/13 00:33:44;;;;;;;14.32;7.35;;;20.70;86.30;;;;;;5086556;28;20351;-61
2021/09/13 00:36:10;;;;;;;11.73;7.07;;;20.70;86.30;;;;;;5081259;28;20036;-61
2021/09/13 00:38:35;;;;;;;12.95;7.30;;;20.60;86.20;;;;;;5080138;28;20024;-61
2021/09/13 00:41:01;;;;;;;11.15;6.63;;;20.60;86.30;;;;;;5073735;28;20543;-61
2021/09/13 00:43:27;;;;;;;7.38;6.30;;;20.60;86.40;;;;;;5084720;28;20158;-61
2021/09/13 00:45:52;;;;;;;9.18;6.18;;;20.60;86.50;;;;;;5085182;28;20122;-61
2021/09/13 00:48:18;;;;;;;8.43;6.35;;;20.60;86.50;;;;;;5081727;28;20032;-61
2021/09/13 00:50:43;;;;;;;7.10;6.30;;;20.60;86.60;;;;;;5082163;28;20031;-61
2021/09/13 00:53:09;;;;;;;7.57;6.78;;;20.50;86.60;;;;;;5082060;28;20047;-61
2021/09/13 00:55:34;;;;;;;7.32;6.22;;;20.60;86.70;;;;;;5076208;28;20499;-61
2021/09/13 00:58:00;;;;;;;6.97;5.97;;;20.50;86.70;;;;;;5085604;28;20533;-61
2021/09/13 01:00:25;;;;;;;11.50;6.65;;;20.50;86.70;;;;;;5053115;28;20039;-61
2021/09/13 01:02:51;;;;;;;7.72;6.57;;;20.50;86.70;;;;;;5075601;28;20074;-61
2021/09/13 01:05:16;;;;;;;7.13;5.90;;;20.50;86.80;;;;;;5071842;28;20075;-61
2021/09/13 01:07:42;;;;;;;6.90;6.20;;;20.50;86.90;;;;;;5077113;28;20883;-61
2021/09/13 01:10:08;;;;;;;6.93;6.22;;;20.50;86.80;;;;;;5076198;28;20047;-61
2021/09/13 01:12:34;;;;;;;6.65;6.05;;;20.50;86.80;;;;;;5085704;28;20040;-61
2021/09/13 01:15:00;;;;;;;7.68;6.43;;;20.40;86.80;;;;;;5092155;28;20051;-61
2021/09/13 01:17:25;;;;;;;10.05;6.03;;;20.40;86.90;;;;;;5069231;28;20098;-61
2021/09/13 01:19:51;;;;;;;7.95;6.45;;;20.40;86.90;;;;;;5063778;28;20024;-61
2021/09/13 01:22:18;;;;;;;9.48;6.15;;;20.40;86.90;;;;;;5057639;28;20097;-61
2021/09/13 01:24:43;;;;;;;6.68;6.03;;;20.40;87.10;;;;;;5084950;28;20043;-61
2021/09/13 01:27:10;;;;;;;8.18;6.38;;;20.40;87.10;;;;;;5087287;28;20036;-61
2021/09/13 01:29:35;;;;;;;9.75;6.00;;;20.30;87.10;;;;;;5095663;28;20024;-61
2021/09/13 01:32:01;;;;;;;7.68;6.70;;;20.30;87.10;;;;;;5069086;28;20043;-61
2021/09/13 01:34:27;;;;;;;7.10;6.40;;;20.40;87.20;;;;;;5064256;28;20059;-61
2021/09/13 01:36:52;;;;;;;8.52;6.18;;;20.30;87.20;;;;;;5090586;28;20028;-61
2021/09/13 01:39:18;;;;;;;7.10;6.50;;;20.30;87.20;;;;;;5087935;28;20031;-61
2021/09/13 01:41:44;;;;;;;8.23;6.70;;;20.30;87.20;;;;;;5067750;28;20439;-62
2021/09/13 01:44:11;;;;;;;7.13;6.38;;;20.30;87.20;;;;;;5096937;28;20028;-61
2021/09/13 01:46:38;;;;;;;7.15;6.45;;;20.20;87.20;;;;;;5078432;28;20107;-61
2021/09/13 01:49:05;;;;;;;7.68;6.55;;;20.20;87.20;;;;;;5096811;28;20043;-60
2021/09/13 01:51:30;;;;;;;7.57;6.65;;;20.30;87.30;;;;;;5058978;28;20020;-61
2021/09/13 01:53:56;;;;;;;7.50;6.80;;;20.20;87.30;;;;;;5077634;28;20035;-61
2021/09/13 01:56:21;;;;;;;7.55;6.78;;;20.20;87.30;;;;;;5090804;28;20476;-61
2021/09/13 01:58:47;;;;;;;7.60;6.47;;;20.20;87.30;;;;;;5085857;28;20025;-61
2021/09/13 02:01:12;;;;;;;7.32;6.57;;;20.20;87.40;;;;;;5075400;28;20047;-61
2021/09/13 02:03:38;;;;;;;6.72;6.13;;;20.20;87.30;;;;;;5066770;28;20106;-61
2021/09/13 02:06:03;;;;;;;7.47;6.00;;;20.20;87.30;;;;;;5092239;28;20119;-61
2021/09/13 02:08:29;;;;;;;7.00;6.30;;;20.10;87.30;;;;;;5084459;28;20594;-61
2021/09/13 02:10:54;;;;;;;8.80;6.68;;;20.10;87.40;;;;;;5086898;28;20040;-61
2021/09/13 02:13:20;;;;;;;11.10;7.93;;;20.10;87.50;;;;;;5075085;28;20032;-61
2021/09/13 02:15:45;;;;;;;8.18;7.35;;;20.10;87.50;;;;;;5077162;28;20035;-61
2021/09/13 02:18:11;;;;;;;8.55;7.45;;;20.10;87.60;;;;;;5065313;28;20024;-61
2021/09/13 02:20:36;;;;;;;8.88;7.22;;;20.00;87.60;;;;;;5089964;28;20317;-61
2021/09/13 02:23:02;;;;;;;10.25;7.60;;;20.00;87.60;;;;;;5090274;28;20023;-61
2021/09/13 02:25:27;;;;;;;8.40;7.60;;;20.00;87.70;;;;;;5074123;28;20039;-61
2021/09/13 02:27:53;;;;;;;8.38;7.57;;;20.00;87.80;;;;;;5095430;28;20043;-61
2021/09/13 02:30:18;;;;;;;7.68;6.88;;;20.00;87.80;;;;;;5078354;28;20039;-61
2021/09/13 02:32:44;;;;;;;7.90;7.00;;;19.90;87.80;;;;;;5090173;28;20047;-61
2021/09/13 02:35:09;;;;;;;8.02;7.20;;;19.90;87.90;;;;;;5080871;28;20028;-61
2021/09/13 02:37:35;;;;;;;10.82;6.88;;;19.90;87.90;;;;;;5083455;28;20462;-61
2021/09/13 02:40:01;;;;;;;8.43;6.75;;;19.80;88.00;;;;;;5084269;28;20044;-61
2021/09/13 02:42:27;;;;;;;9.10;7.00;;;19.80;88.00;;;;;;5081925;28;20089;-61
2021/09/13 02:44:52;;;;;;;7.57;6.85;;;19.80;88.00;;;;;;5088765;28;20024;-61
2021/09/13 02:47:18;;;;;;;8.65;6.28;;;19.80;88.10;;;;;;5079347;28;20039;-61
2021/09/13 02:49:43;;;;;;;9.80;6.95;;;19.80;88.10;;;;;;5066631;28;20078;-61
2021/09/13 02:52:09;;;;;;;6.80;6.15;;;19.70;88.10;;;;;;5080261;28;20502;-61
2021/09/13 02:54:34;;;;;;;7.72;7.00;;;19.70;88.10;;;;;;5090094;28;20028;-61
2021/09/13 02:57:00;;;;;;;6.85;6.22;;;19.70;88.10;;;;;;5086829;28;20074;-61
2021/09/13 02:59:25;;;;;;;6.70;6.07;;;19.70;88.20;;;;;;5086686;28;20074;-61
2021/09/13 03:01:51;;;;;;;7.28;6.63;;;19.70;88.30;;;;;;5086670;28;20024;-61
2021/09/13 03:04:16;;;;;;;7.00;6.30;;;19.70;88.30;;;;;;5085099;28;20118;-61
2021/09/13 03:06:42;;;;;;;6.90;6.30;;;19.60;88.20;;;;;;5091188;28;20389;-61
2021/09/13 03:09:07;;;;;;;8.20;6.60;;;19.60;88.30;;;;;;5081141;28;20070;-61
2021/09/13 03:11:33;;;;;;;8.50;6.70;;;19.60;88.30;;;;;;5085528;28;20023;-61
2021/09/13 03:13:58;;;;;;;7.60;6.35;;;19.60;88.40;;;;;;5081453;28;20713;-61
2021/09/13 03:16:24;;;;;;;7.00;6.25;;;19.60;88.50;;;;;;5084672;28;20056;-61
2021/09/13 03:18:50;;;;;;;7.43;6.18;;;19.50;88.50;;;;;;5064039;28;20047;-61
2021/09/13 03:21:15;;;;;;;29.38;8.40;;;19.50;88.40;;;;;;5086650;28;20031;-61
2021/09/13 03:23:41;;;;;;;58.28;10.55;;;19.60;88.60;;;;;;5087065;28;20044;-61
2021/09/13 03:26:06;;;;;;;64.15;10.20;;;19.50;88.50;;;;;;5086312;28;20048;-61
2021/09/13 03:28:34;;;;;;;45.88;8.75;;;19.50;88.50;;;;;;5071554;28;20044;-61
2021/09/13 03:31:01;;;;;;;27.92;8.25;;;19.50;88.50;;;;;;5077856;28;20075;-61
2021/09/13 03:33:26;;;;;;;46.10;9.65;;;19.50;88.40;;;;;;5080322;28;20020;-61
2021/09/13 03:35:52;;;;;;;60.00;10.10;;;19.40;88.40;;;;;;5088444;28;20050;-61
2021/09/13 03:38:17;;;;;;;149.50;18.00;;;19.40;88.50;;;;;;5087117;28;20048;-61
2021/09/13 03:40:43;;;;;;;102.15;13.45;;;19.40;88.60;;;;;;5087046;28;20111;-61
2021/09/13 03:43:09;;;;;;;103.97;13.32;;;19.40;88.70;;;;;;5058461;28;20035;-61
2021/09/13 03:45:34;;;;;;;85.22;13.35;;;19.40;88.80;;;;;;5082843;28;20024;-61
2021/09/13 03:48:00;;;;;;;81.82;11.50;;;19.40;88.80;;;;;;5066104;28;20340;-61
2021/09/13 03:50:25;;;;;;;67.68;10.95;;;19.40;88.70;;;;;;5087343;28;20043;-61
2021/09/13 03:52:51;;;;;;;85.50;12.15;;;19.40;88.80;;;;;;5091684;28;20353;-61
2021/09/13 03:55:16;;;;;;;74.53;12.43;;;19.40;88.70;;;;;;5083304;28;20468;-61
2021/09/13 03:57:42;;;;;;;74.45;11.57;;;19.30;88.80;;;;;;5076278;28;20106;-61
2021/09/13 04:00:08;;;;;;;69.65;11.25;;;19.30;88.80;;;;;;5077461;28;20040;-61
2021/09/13 04:02:34;;;;;;;73.03;11.77;;;19.40;89.00;;;;;;5077389;28;20020;-61
2021/09/13 04:04:59;;;;;;;192.25;19.70;;;19.30;89.00;;;;;;5079954;28;20048;-60
2021/09/13 04:07:29;;;;;;;130.10;16.48;;;19.30;89.00;;;;;;5085541;28;20360;-61
2021/09/13 04:10:10;;;;;;;83.90;11.95;;;19.30;89.10;;;;;;5078964;28;20396;-61
2021/09/13 04:12:36;;;;;;;85.75;11.40;;;19.30;89.30;;;;;;5079061;28;20424;-61
2021/09/13 04:15:01;;;;;;;108.63;12.68;;;19.30;89.40;;;;;;5085782;28;20030;-61
2021/09/13 04:17:27;;;;;;;73.30;10.32;;;19.30;89.30;;;;;;5085186;28;20035;-61
2021/09/13 04:19:52;;;;;;;74.88;12.02;;;19.30;89.50;;;;;;5081108;28;20032;-61
2021/09/13 04:22:18;;;;;;;66.55;11.10;;;19.30;89.40;;;;;;5075080;28;20044;-61
2021/09/13 04:24:43;;;;;;;88.57;11.50;;;19.20;89.50;;;;;;5079510;28;20040;-61
2021/09/13 04:27:09;;;;;;;79.97;12.00;;;19.20;89.50;;;;;;5079645;28;20033;-61
2021/09/13 04:29:34;;;;;;;80.72;13.07;;;19.20;89.50;;;;;;5065256;28;20101;-61
2021/09/13 04:32:00;;;;;;;71.43;10.65;;;19.20;89.70;;;;;;5079147;28;20098;-61
2021/09/13 04:34:26;;;;;;;63.78;9.80;;;19.20;89.90;;;;;;5059213;28;20028;-61
2021/09/13 04:36:51;;;;;;;61.55;11.07;;;19.20;89.80;;;;;;5100500;28;20102;-61
2021/09/13 04:39:17;;;;;;;45.28;10.40;;;19.20;89.90;;;;;;5084268;28;20074;-61
2021/09/13 04:41:42;;;;;;;72.05;11.38;;;19.20;89.90;;;;;;5077090;28;20038;-61
2021/09/13 04:44:08;;;;;;;48.30;9.50;;;19.20;89.80;;;;;;5077959;28;20038;-61
2021/09/13 04:46:33;;;;;;;48.45;9.90;;;19.10;89.80;;;;;;5077204;28;20106;-61
2021/09/13 04:48:59;;;;;;;36.45;8.70;;;19.20;89.90;;;;;;5083975;28;20078;-61
2021/09/13 04:51:24;;;;;;;43.83;9.27;;;19.20;89.80;;;;;;5080310;28;20696;-61
2021/09/13 04:53:50;;;;;;;54.90;9.38;;;19.20;89.80;;;;;;5096653;28;20452;-61
2021/09/13 04:56:15;;;;;;;41.10;9.25;;;19.10;89.70;;;;;;5081332;28;20036;-61
2021/09/13 04:58:41;;;;;;;45.17;8.32;;;19.10;89.70;;;;;;5091446;28;20329;-61
2021/09/13 05:01:07;;;;;;;42.55;8.68;;;19.10;89.70;;;;;;5077588;28;20335;-61
2021/09/13 05:03:33;;;;;;;49.30;9.30;;;19.10;89.80;;;;;;5083403;28;20167;-61
2021/09/13 05:05:58;;;;;;;49.88;9.07;;;19.10;89.90;;;;;;5085393;28;20141;-61
2021/09/13 05:08:24;;;;;;;31.58;8.23;;;19.00;89.80;;;;;;5078843;28;20110;-61
2021/09/13 05:10:49;;;;;;;50.08;9.25;;;19.00;89.80;;;;;;5076850;28;20028;-61
2021/09/13 05:13:15;;;;;;;35.08;7.57;;;19.00;89.90;;;;;;5091564;28;20031;-61
2021/09/13 05:15:40;;;;;;;35.63;8.23;;;19.00;90.00;;;;;;5078911;28;20437;-61
2021/09/13 05:18:06;;;;;;;27.75;7.47;;;19.00;90.00;;;;;;5084178;28;20032;-61
2021/09/13 05:20:31;;;;;;;38.78;8.82;;;19.00;90.00;;;;;;5077859;28;20059;-61
2021/09/13 05:22:57;;;;;;;32.30;8.85;;;18.90;90.00;;;;;;5085479;28;20095;-61
2021/09/13 05:25:22;;;;;;;22.45;7.45;;;18.90;90.00;;;;;;5080654;28;20040;-61
2021/09/13 05:27:48;;;;;;;25.73;7.80;;;18.90;90.00;;;;;;5079760;28;20036;-61
2021/09/13 05:30:15;;;;;;;25.77;6.82;;;18.90;90.00;;;;;;5072468;28;20036;-61
2021/09/13 05:32:41;;;;;;;17.08;7.53;;;18.80;90.00;;;;;;5065051;28;20020;-61
2021/09/13 05:35:07;;;;;;;21.17;7.35;;;18.80;90.10;;;;;;5075452;28;20501;-61
2021/09/13 05:37:32;;;;;;;22.95;6.97;;;18.90;90.10;;;;;;5084353;28;20040;-61
2021/09/13 05:39:58;;;;;;;32.55;7.63;;;18.90;90.00;;;;;;5082857;28;20032;-61
2021/09/13 05:42:24;;;;;;;22.67;7.10;;;18.80;90.00;;;;;;5062990;28;20085;-61
2021/09/13 05:44:49;;;;;;;24.55;6.82;;;18.80;90.00;;;;;;5056075;28;20048;-61
2021/09/13 05:47:15;;;;;;;22.15;6.93;;;18.80;90.10;;;;;;5082509;28;20057;-61
2021/09/13 05:49:40;;;;;;;20.73;6.80;;;18.70;90.10;;;;;;5065731;28;20090;-61
2021/09/13 05:52:06;;;;;;;14.45;6.40;;;18.80;90.10;;;;;;5085528;28;20033;-61
2021/09/13 05:54:31;;;;;;;23.58;7.20;;;18.80;90.10;;;;;;5081754;28;20028;-61
2021/09/13 05:56:57;;;;;;;17.92;6.20;;;18.80;90.10;;;;;;5081659;28;20077;-61
2021/09/13 05:59:24;;;;;;;15.93;6.68;;;18.80;90.00;;;;;;5071129;28;20052;-61
2021/09/13 06:01:49;;;;;;;17.17;6.63;;;18.80;90.10;;;;;;5085820;28;20057;-61
2021/09/13 06:04:15;;;;;;;19.30;6.55;;;18.80;90.00;;;;;;5059990;28;20299;-61
2021/09/13 06:06:41;;;;;;;12.93;6.03;;;18.80;90.00;;;;;;5075506;28;20438;-61
2021/09/13 06:09:07;;;;;;;23.00;6.78;;;18.80;90.00;;;;;;5074293;28;20578;-61
2021/09/13 06:11:32;;;;;;;20.63;6.57;;;18.80;90.00;;;;;;5064533;28;20028;-61
2021/09/13 06:13:58;;;;;;;17.67;6.57;;;18.80;90.00;;;;;;5075130;28;20114;-61
2021/09/13 06:16:23;;;;;;;15.57;6.85;;;18.80;90.00;;;;;;5064553;28;20263;-61
2021/09/13 06:18:49;;;;;;;14.82;6.82;;;18.80;90.00;;;;;;5092898;28;20050;-61
2021/09/13 06:21:14;;;;;;;20.40;5.60;;;18.80;90.10;;;;;;5048620;28;20290;-61
2021/09/13 06:23:40;;;;;;;16.13;6.60;;;18.80;90.10;;;;;;5075889;28;20039;-61
2021/09/13 06:26:05;;;;;;;13.25;6.68;;;18.80;90.10;;;;;;5088947;28;20046;-61
2021/09/13 06:28:31;;;;;;;18.30;6.20;;;18.80;90.20;;;;;;5078008;28;20032;-61
2021/09/13 06:30:56;;;;;;;28.40;7.45;;;18.80;90.30;;;;;;5060535;28;20028;-62
2021/09/13 06:33:22;;;;;;;25.15;6.80;;;18.80;90.30;;;;;;5079152;28;20028;-61
2021/09/13 06:35:47;;;;;;;18.33;6.70;;;18.80;90.30;;;;;;5081191;28;20373;-61
2021/09/13 06:38:13;;;;;;;14.02;6.50;;;18.70;90.30;;;;;;5077529;28;20051;-61
2021/09/13 06:40:39;;;;;;;19.77;7.47;;;18.80;90.30;;;;;;5084063;28;20027;-61
2021/09/13 06:43:05;;;;;;;28.08;6.88;;;18.70;90.30;;;;;;5071139;28;20531;-61
2021/09/13 06:45:40;;;;;;;14.25;6.90;;;18.70;90.30;;;;;;5081029;28;20107;-61
2021/09/13 06:48:06;;;;;;;25.23;6.93;;;18.70;90.40;;;;;;5079355;28;20487;-61
2021/09/13 06:50:31;;;;;;;14.52;6.97;;;18.80;90.40;;;;;;5070773;28;20039;-61
2021/09/13 06:52:57;;;;;;;16.42;7.07;;;18.80;90.50;;;;;;5082261;28;20119;-61
2021/09/13 06:55:22;;;;;;;12.35;6.85;;;18.80;90.50;;;;;;5048895;28;20032;-61
2021/09/13 06:57:49;;;;;;;16.52;6.72;;;18.80;90.50;;;;;;5088750;28;20813;-62
2021/09/13 07:00:16;;;;;;;18.70;6.72;;;18.80;90.70;;;;;;5048313;28;20040;-61
2021/09/13 07:02:42;;;;;;;16.73;7.70;;;18.80;90.80;;;;;;5079854;28;20570;-61
2021/09/13 07:05:08;;;;;;;16.23;7.82;;;18.80;90.90;;;;;;5068651;28;20089;-61
2021/09/13 07:07:34;;;;;;;12.40;7.63;;;18.80;91.40;;;;;;5083303;28;20040;-61
2021/09/13 07:09:59;;;;;;;11.05;8.40;;;18.70;91.50;;;;;;5079142;28;20085;-61
2021/09/13 07:12:25;;;;;;;19.02;7.95;;;18.70;91.70;;;;;;5081333;28;20024;-61
2021/09/13 07:14:50;;;;;;;19.85;8.05;;;18.70;91.90;;;;;;5062182;28;20051;-61
2021/09/13 07:17:16;;;;;;;23.80;8.18;;;18.60;92.00;;;;;;5063936;28;20051;-61
2021/09/13 07:19:42;;;;;;;16.90;8.07;;;18.60;92.20;;;;;;5082872;28;20031;-61
2021/09/13 07:22:07;;;;;;;27.98;9.32;;;18.60;92.30;;;;;;5088567;28;20472;-61
2021/09/13 07:24:33;;;;;;;28.23;9.50;;;18.60;92.40;;;;;;5092726;28;20245;-61
2021/09/13 07:26:58;;;;;;;24.40;8.82;;;18.60;92.60;;;;;;5083397;28;20024;-61
2021/09/13 07:29:25;;;;;;;30.88;9.95;;;18.60;92.60;;;;;;5059014;28;20075;-61
2021/09/13 07:31:50;;;;;;;28.48;8.93;;;18.60;92.70;;;;;;5080653;28;20483;-61
2021/09/13 07:34:16;;;;;;;18.55;8.52;;;18.60;93.10;;;;;;5046846;28;20158;-61
2021/09/13 07:36:41;;;;;;;37.92;10.10;;;18.60;92.80;;;;;;5093514;28;20118;-61
2021/09/13 07:39:07;;;;;;;26.73;9.00;;;18.60;92.70;;;;;;5067895;28;20040;-61
2021/09/13 07:41:32;;;;;;;24.15;8.98;;;18.60;92.70;;;;;;5094412;28;20031;-61
2021/09/13 07:43:58;;;;;;;19.33;8.65;;;18.70;92.80;;;;;;5055056;28;20405;-61
2021/09/13 07:46:23;;;;;;;22.13;9.40;;;18.70;92.80;;;;;;5084345;28;20040;-61
2021/09/13 07:48:49;;;;;;;14.52;8.32;;;18.70;93.00;;;;;;5094208;28;20028;-62
2021/09/13 07:51:14;;;;;;;18.95;8.43;;;18.70;93.00;;;;;;5092149;28;20023;-61
2021/09/13 07:53:40;;;;;;;16.73;8.48;;;18.70;93.10;;;;;;5088799;28;20028;-62
2021/09/13 07:56:05;;;;;;;20.30;8.07;;;18.60;93.00;;;;;;5079268;28;20507;-62
2021/09/13 07:58:31;;;;;;;15.73;7.10;;;18.70;93.20;;;;;;5086039;28;20094;-61
2021/09/13 08:00:56;;;;;;;21.73;8.15;;;18.70;93.10;;;;;;5065345;28;20444;-61
2021/09/13 08:03:22;;;;;;;16.20;8.07;;;18.70;93.00;;;;;;5066221;28;20039;-61
2021/09/13 08:05:47;;;;;;;13.13;7.53;;;18.70;93.00;;;;;;5072816;28;20051;-61
2021/09/13 08:08:13;;;;;;;17.88;8.02;;;18.70;93.10;;;;;;5062928;28;20158;-61
2021/09/13 08:10:39;;;;;;;20.38;8.18;;;18.80;93.10;;;;;;5050216;28;20460;-61
2021/09/13 08:13:05;;;;;;;17.83;8.10;;;18.80;93.20;;;;;;5080883;28;20040;-61
2021/09/13 08:15:31;;;;;;;14.68;8.20;;;18.80;93.20;;;;;;5053252;28;20032;-61
2021/09/13 08:17:56;;;;;;;13.20;7.65;;;18.80;93.40;;;;;;5056500;28;20093;-61
2021/09/13 08:20:22;;;;;;;18.13;7.97;;;19.00;93.40;;;;;;5076415;28;20460;-61
2021/09/13 08:22:47;;;;;;;9.73;7.93;;;18.80;93.70;;;;;;5075185;28;20452;-62
2021/09/13 08:25:13;;;;;;;14.07;8.18;;;18.80;93.70;;;;;;5082231;28;20053;-61
2021/09/13 08:27:39;;;;;;;16.20;8.02;;;18.90;93.80;;;;;;5050887;28;20028;-61
2021/09/13 08:30:05;;;;;;;16.38;8.50;;;18.90;93.60;;;;;;5077076;28;20043;-61
2021/09/13 08:32:31;;;;;;;19.27;8.20;;;18.90;93.70;;;;;;5082180;28;20333;-61
2021/09/13 08:34:56;;;;;;;15.10;8.65;;;18.90;93.90;;;;;;5049508;28;20028;-61
2021/09/13 08:37:22;;;;;;;23.08;9.02;;;19.00;93.90;;;;;;5072293;28;20048;-61
2021/09/13 08:39:47;;;;;;;24.48;8.25;;;18.90;94.00;;;;;;5072966;28;20444;-61
2021/09/13 08:42:13;;;;;;;19.50;8.35;;;19.00;94.00;;;;;;5067626;28;20455;-61
2021/09/13 08:44:40;;;;;;;19.70;8.20;;;19.00;94.00;;;;;;5068253;28;20523;-61
2021/09/13 08:47:12;;;;;;;23.52;8.63;;;19.00;93.90;;;;;;5076359;28;20050;-62
2021/09/13 08:49:40;;;;;;;19.13;8.50;;;19.00;94.00;;;;;;5056503;28;20047;-62
2021/09/13 08:52:06;;;;;;;28.13;8.65;;;19.00;94.10;;;;;;5064350;28;20072;-61
2021/09/13 08:54:34;;;;;;;19.98;8.40;;;19.10;94.20;;;;;;5078228;28;20149;-61
2021/09/13 08:57:06;;;;;;;13.43;7.57;;;19.10;93.90;;;;;;5076465;28;20444;-61
2021/09/13 08:59:36;;;;;;;14.05;7.18;;;19.10;93.80;;;;;;5076393;28;20451;-61
2021/09/13 09:02:02;;;;;;;31.63;10.13;;;19.10;93.70;;;;;;5075041;28;20028;-61
2021/09/13 09:04:28;;;;;;;21.77;8.85;;;19.10;93.90;;;;;;5060767;28;20361;-61
2021/09/13 09:06:54;;;;;;;28.73;9.70;;;19.20;93.90;;;;;;5064685;28;20474;-61
2021/09/13 09:09:22;;;;;;;18.55;8.45;;;19.20;93.90;;;;;;5091246;28;20063;-61
2021/09/13 09:12:02;;;;;;;20.58;8.75;;;19.30;94.00;;;;;;5078534;28;20031;-61
2021/09/13 09:14:41;;;;;;;33.30;9.15;;;19.30;94.00;;;;;;5053878;28;20137;-61
2021/09/13 09:17:27;;;;;;;21.67;8.48;;;19.30;94.00;;;;;;5082619;28;20032;-61
2021/09/13 09:20:10;;;;;;;21.83;8.55;;;19.30;93.80;;;;;;5082411;28;20034;-61
2021/09/13 09:22:42;;;;;;;16.95;7.95;;;19.40;93.70;;;;;;5082867;28;20028;-62
2021/09/13 09:25:23;;;;;;;18.48;8.57;;;19.40;94.00;;;;;;5048516;28;20190;-61
2021/09/13 09:27:56;;;;;;;23.88;9.27;;;19.40;93.90;;;;;;5060900;28;20044;-60
2021/09/13 09:30:22;;;;;;;33.92;9.65;;;19.50;93.90;;;;;;5073803;28;20073;-61
2021/09/13 09:33:06;;;;;;;32.60;9.07;;;19.50;94.00;;;;;;5083657;28;20090;-61
2021/09/13 09:35:51;;;;;;;20.65;8.88;;;19.50;93.90;;;;;;5061179;28;20024;-61
2021/09/13 09:38:29;;;;;;;26.83;9.77;;;19.50;93.80;;;;;;5069493;28;20044;-61
2021/09/13 09:41:02;;;;;;;38.75;9.25;;;19.60;93.70;;;;;;5074090;28;20586;-61
2021/09/13 09:43:30;;;;;;;30.55;9.35;;;19.60;93.60;;;;;;5053056;28;20028;-61
2021/09/13 09:45:55;;;;;;;29.52;9.48;;;19.70;93.60;;;;;;5080148;28;20024;-61
2021/09/13 09:48:28;;;;;;;42.65;10.18;;;19.70;93.60;;;;;;5085280;28;20031;-61
2021/09/13 09:50:54;;;;;;;68.55;12.05;;;19.70;93.60;;;;;;5062077;28;20047;-61
2021/09/13 09:53:19;;;;;;;46.45;10.52;;;19.70;93.60;;;;;;5044826;28;20190;-61
2021/09/13 09:55:50;;;;;;;58.75;12.02;;;19.80;93.60;;;;;;5058397;28;20035;-61
2021/09/13 09:58:16;;;;;;;85.55;13.05;;;19.80;93.50;;;;;;5072177;28;20077;-61
2021/09/13 10:00:44;;;;;;;56.75;11.07;;;19.80;93.40;;;;;;5094303;28;20031;-61
2021/09/13 10:03:10;;;;;;;63.67;12.75;;;19.90;93.40;;;;;;5054136;28;20093;-61
2021/09/13 10:05:35;;;;;;;101.10;14.50;;;19.90;93.20;;;;;;5079760;28;20028;-62
2021/09/13 10:08:01;;;;;;;52.20;11.10;;;20.00;93.20;;;;;;5056755;28;20123;-61
2021/09/13 10:10:29;;;;;;;51.47;10.20;;;20.00;93.00;;;;;;5077311;28;20123;-61
2021/09/13 10:12:55;;;;;;;42.78;11.20;;;20.00;93.00;;;;;;5047954;28;20020;-61
2021/09/13 10:15:20;;;;;;;60.67;11.05;;;20.10;92.90;;;;;;5061178;28;20598;-61
2021/09/13 10:17:46;;;;;;;42.63;10.68;;;20.10;92.90;;;;;;5081575;28;20028;-61
2021/09/13 10:20:13;;;;;;;55.10;11.32;;;20.20;92.90;;;;;;5050498;28;20395;-63
2021/09/13 10:22:42;;;;;;;47.22;9.82;;;20.20;92.90;;;;;;5080774;28;20016;-63
2021/09/13 10:25:08;;;;;;;65.03;12.15;;;20.20;92.70;;;;;;5081814;28;20040;-63
2021/09/13 10:27:41;;;;;;;48.80;10.80;;;20.30;92.80;;;;;;5078265;28;20047;-63
2021/09/13 10:30:23;;;;;;;64.88;11.88;;;20.20;92.70;;;;;;5076901;28;20020;-62
2021/09/13 10:32:50;;;;;;;58.58;11.52;;;20.30;92.70;;;;;;5069567;28;20051;-62
2021/09/13 10:35:18;;;;;;;51.88;11.80;;;20.30;92.60;;;;;;5053342;28;20024;-63
2021/09/13 10:37:44;;;;;;;83.10;13.18;;;20.40;92.50;;;;;;5065312;28;20454;-63
2021/09/13 10:40:16;;;;;;;78.18;14.25;;;20.40;92.40;;;;;;5086241;28;20040;-63
2021/09/13 10:43:19;;;;;;;60.10;12.80;;;20.50;92.40;;;;;;5082424;28;20107;-63
2021/09/13 10:45:45;;;;;;;56.75;11.88;;;20.50;92.20;;;;;;5077945;28;20048;-63
2021/09/13 10:48:21;;;;;;;50.15;12.10;;;20.60;92.10;;;;;;5081841;28;20498;-63
2021/09/13 10:50:50;;;;;;;73.13;13.48;;;20.60;91.90;;;;;;5084901;28;20034;-63
2021/09/13 10:53:19;;;;;;;54.80;11.60;;;20.60;91.80;;;;;;5073684;28;20061;-63
2021/09/13 10:55:45;;;;;;;59.67;11.25;;;20.70;91.70;;;;;;5090844;28;20141;-63
2021/09/13 10:58:13;;;;;;;48.53;10.73;;;20.70;91.50;;;;;;5070297;28;20067;-63
2021/09/13 11:00:42;;;;;;;45.42;10.18;;;20.70;91.40;;;;;;5066503;28;20073;-63
2021/09/13 11:03:28;;;;;;;54.42;10.73;;;20.80;91.30;;;;;;5086484;28;20028;-63
2021/09/13 11:06:12;;;;;;;50.25;11.65;;;20.80;91.20;;;;;;5086347;28;20107;-63
2021/09/13 11:08:47;;;;;;;64.13;11.60;;;20.90;91.10;;;;;;5074234;28;20081;-63
2021/09/13 11:11:34;;;;;;;57.97;9.10;;;20.90;91.00;;;;;;5064270;28;20360;-63
2021/09/13 11:14:06;;;;;;;39.30;10.02;;;21.00;90.80;;;;;;5084555;28;20039;-63
2021/09/13 11:16:33;;;;;;;41.67;9.80;;;21.10;90.70;;;;;;5050383;28;20371;-62
2021/09/13 11:18:58;;;;;;;51.75;9.20;;;21.10;90.60;;;;;;5078505;28;20127;-63
2021/09/13 11:21:29;;;;;;;27.40;8.98;;;21.20;90.50;;;;;;5083516;28;20146;-63
2021/09/13 11:23:58;;;;;;;33.60;8.40;;;21.20;90.20;;;;;;5066649;28;20082;-63
2021/09/13 11:26:39;;;;;;;46.22;8.85;;;21.30;89.80;;;;;;5078874;28;20058;-62
2021/09/13 11:29:05;;;;;;;43.80;9.27;;;21.30;89.80;;;;;;5082672;28;20042;-60
2021/09/13 11:31:38;;;;;;;28.60;8.32;;;21.40;89.70;;;;;;5073778;28;20028;-60
2021/09/13 11:34:18;;;;;;;36.05;8.65;;;21.40;89.50;;;;;;5080570;28;20032;-60
2021/09/13 11:36:57;;;;;;;36.38;9.30;;;21.50;89.00;;;;;;5077064;28;20119;-63
2021/09/13 11:39:49;;;;;;;27.63;8.73;;;21.50;88.90;;;;;;5082739;28;20040;-63
2021/09/13 11:42:20;;;;;;;38.17;8.80;;;21.60;88.50;;;;;;5085927;28;20036;-62
2021/09/13 11:44:49;;;;;;;46.33;9.20;;;21.70;88.30;;;;;;5059822;28;20459;-62
2021/09/13 11:47:16;;;;;;;39.35;9.00;;;21.70;87.60;;;;;;5087495;28;20760;-63
2021/09/13 11:49:43;;;;;;;25.20;7.70;;;21.80;87.40;;;;;;5062965;28;20039;-63
2021/09/13 11:52:12;;;;;;;44.58;9.15;;;21.90;87.00;;;;;;5078421;28;20156;-63
2021/09/13 11:55:06;;;;;;;25.83;8.40;;;22.00;86.30;;;;;;5078317;28;20031;-62
2021/09/13 11:57:35;;;;;;;33.83;7.88;;;22.10;86.20;;;;;;5052841;28;20510;-62
2021/09/13 12:00:06;;;;;;;49.67;8.85;;;22.10;85.40;;;;;;5072949;28;20051;-62
2021/09/13 12:02:31;;;;;;;44.45;7.80;;;22.10;85.00;;;;;;5077921;28;20560;-62
2021/09/13 12:04:58;;;;;;;32.72;7.68;;;22.20;84.60;;;;;;5051562;28;20049;-62
2021/09/13 12:07:23;;;;;;;28.77;7.35;;;22.30;84.10;;;;;;5069641;28;20044;-63
2021/09/13 12:09:50;;;;;;;28.45;8.02;;;22.30;83.40;;;;;;5068312;28;20066;-62
2021/09/13 12:12:19;;;;;;;33.00;6.93;;;22.40;82.80;;;;;;5062777;28;20024;-61
2021/09/13 12:14:45;;;;;;;22.30;7.03;;;22.40;82.60;;;;;;5058581;28;20165;-61
2021/09/13 12:17:11;;;;;;;28.48;7.72;;;22.50;82.20;;;;;;5060736;28;20131;-63
2021/09/13 12:20:16;;;;;;;33.08;7.80;;;22.50;81.70;;;;;;5065669;28;20043;-62
2021/09/13 12:22:43;;;;;;;64.03;9.80;;;22.60;81.80;;;;;;5059484;28;20743;-61
2021/09/13 12:25:14;;;;;;;45.55;7.70;;;22.60;81.50;;;;;;5043020;28;20076;-62
2021/09/13 12:27:45;;;;;;;48.58;8.25;;;22.70;81.20;;;;;;5045780;28;20063;-62
2021/09/13 12:30:16;;;;;;;49.25;9.05;;;22.70;81.10;;;;;;5033349;28;20133;-62
2021/09/13 12:32:51;;;;;;;30.38;7.28;;;22.80;80.80;;;;;;5037696;28;20056;-62
2021/09/13 12:35:17;;;;;;;35.40;7.50;;;22.90;80.30;;;;;;5041950;28;20472;-62
2021/09/13 12:37:42;;;;;;;38.10;7.68;;;23.00;79.90;;;;;;5051505;28;20036;-62